sensor_id;sensor_type;location;lat;lon;timestamp;temperature;humidity
66213;SHT31;53015;50.046;8.238;2024-03-02T00:00:01;5.10;92.96
66213;SHT31;53015;50.046;8.238;2024-03-02T00:02:28;5.24;92.37
66213;SHT31;53015;50.046;8.238;2024-03-02T00:04:53;5.25;92.01
66213;SHT31;53015;50.046;8.238;2024-03-02T00:07:19;5.17;92.17
66213;SHT31;53015;50.046;8.238;2024-03-02T00:09:44;5.21;92.33
66213;SHT31;53015;50.046;8.238;2024-03-02T00:12:11;4.91;92.76
66213;SHT31;53015;50.046;8.238;2024-03-02T00:14:42;4.81;93.48
66213;SHT31;53015;50.046;8.238;2024-03-02T00:17:17;4.97;93.37
66213;SHT31;53015;50.046;8.238;2024-03-02T00:19:44;4.98;92.81
66213;SHT31;53015;50.046;8.238;2024-03-02T00:22:10;4.97;92.94
66213;SHT31;53015;50.046;8.238;2024-03-02T00:24:37;5.08;92.73
66213;SHT31;53015;50.046;8.238;2024-03-02T00:27:04;4.81;93.38
66213;SHT31;53015;50.046;8.238;2024-03-02T00:29:32;4.88;93.83
66213;SHT31;53015;50.046;8.238;2024-03-02T00:31:58;4.93;93.02
66213;SHT31;53015;50.046;8.238;2024-03-02T00:34:24;4.69;93.51
66213;SHT31;53015;50.046;8.238;2024-03-02T00:36:51;4.63;94.02
66213;SHT31;53015;50.046;8.238;2024-03-02T00:39:17;4.73;94.03
66213;SHT31;53015;50.046;8.238;2024-03-02T00:41:44;4.73;93.84
66213;SHT31;53015;50.046;8.238;2024-03-02T00:44:12;4.74;94.16
66213;SHT31;53015;50.046;8.238;2024-03-02T00:46:39;4.79;93.97
66213;SHT31;53015;50.046;8.238;2024-03-02T00:49:17;4.69;93.69
66213;SHT31;53015;50.046;8.238;2024-03-02T00:51:46;4.65;94.07
66213;SHT31;53015;50.046;8.238;2024-03-02T00:54:14;4.72;93.89
66213;SHT31;53015;50.046;8.238;2024-03-02T00:56:41;4.85;93.33
66213;SHT31;53015;50.046;8.238;2024-03-02T00:59:07;4.79;92.65
66213;SHT31;53015;50.046;8.238;2024-03-02T01:01:33;4.91;93.31
66213;SHT31;53015;50.046;8.238;2024-03-02T01:03:59;4.98;92.59
66213;SHT31;53015;50.046;8.238;2024-03-02T01:06:25;5.04;92.38
66213;SHT31;53015;50.046;8.238;2024-03-02T01:08:50;5.10;91.92
66213;SHT31;53015;50.046;8.238;2024-03-02T01:11:18;4.88;91.86
66213;SHT31;53015;50.046;8.238;2024-03-02T01:13:44;4.57;92.72
66213;SHT31;53015;50.046;8.238;2024-03-02T01:16:09;4.48;93.74
66213;SHT31;53015;50.046;8.238;2024-03-02T01:18:35;4.41;94.39
66213;SHT31;53015;50.046;8.238;2024-03-02T01:21:00;4.67;93.56
66213;SHT31;53015;50.046;8.238;2024-03-02T01:23:26;4.56;93.91
66213;SHT31;53015;50.046;8.238;2024-03-02T01:25:52;4.66;94.63
66213;SHT31;53015;50.046;8.238;2024-03-02T01:28:19;4.85;93.66
66213;SHT31;53015;50.046;8.238;2024-03-02T01:30:45;4.84;93.26
66213;SHT31;53015;50.046;8.238;2024-03-02T01:33:10;4.81;92.92
66213;SHT31;53015;50.046;8.238;2024-03-02T01:35:36;4.88;93.05
66213;SHT31;53015;50.046;8.238;2024-03-02T01:38:02;4.79;92.94
66213;SHT31;53015;50.046;8.238;2024-03-02T01:40:28;4.73;93.69
66213;SHT31;53015;50.046;8.238;2024-03-02T01:42:53;4.80;93.45
66213;SHT31;53015;50.046;8.238;2024-03-02T01:45:20;4.81;92.68
66213;SHT31;53015;50.046;8.238;2024-03-02T01:47:46;4.69;92.86
66213;SHT31;53015;50.046;8.238;2024-03-02T01:50:12;4.67;93.36
66213;SHT31;53015;50.046;8.238;2024-03-02T01:52:37;4.50;93.73
66213;SHT31;53015;50.046;8.238;2024-03-02T01:55:04;4.65;94.11
66213;SHT31;53015;50.046;8.238;2024-03-02T01:57:29;4.81;93.76
66213;SHT31;53015;50.046;8.238;2024-03-02T01:59:55;4.76;93.03
66213;SHT31;53015;50.046;8.238;2024-03-02T02:02:22;4.72;92.88
66213;SHT31;53015;50.046;8.238;2024-03-02T02:04:48;4.74;93.17
66213;SHT31;53015;50.046;8.238;2024-03-02T02:07:14;4.79;92.74
66213;SHT31;53015;50.046;8.238;2024-03-02T02:09:40;4.80;92.92
66213;SHT31;53015;50.046;8.238;2024-03-02T02:12:07;4.57;93.20
66213;SHT31;53015;50.046;8.238;2024-03-02T02:14:33;4.44;94.03
66213;SHT31;53015;50.046;8.238;2024-03-02T02:17:00;4.24;94.32
66213;SHT31;53015;50.046;8.238;2024-03-02T02:19:27;4.52;94.17
66213;SHT31;53015;50.046;8.238;2024-03-02T02:21:56;4.53;93.27
66213;SHT31;53015;50.046;8.238;2024-03-02T02:24:22;4.34;93.91
66213;SHT31;53015;50.046;8.238;2024-03-02T02:26:48;4.14;94.22
66213;SHT31;53015;50.046;8.238;2024-03-02T02:29:14;4.01;95.13
66213;SHT31;53015;50.046;8.238;2024-03-02T02:31:40;3.98;95.51
66213;SHT31;53015;50.046;8.238;2024-03-02T02:34:06;3.90;96.25
66213;SHT31;53015;50.046;8.238;2024-03-02T02:36:33;3.91;96.38
66213;SHT31;53015;50.046;8.238;2024-03-02T02:39:02;4.14;95.89
66213;SHT31;53015;50.046;8.238;2024-03-02T02:41:28;4.24;94.89
66213;SHT31;53015;50.046;8.238;2024-03-02T02:43:54;4.27;94.61
66213;SHT31;53015;50.046;8.238;2024-03-02T02:46:20;4.19;94.65
66213;SHT31;53015;50.046;8.238;2024-03-02T02:48:46;4.07;95.13
66213;SHT31;53015;50.046;8.238;2024-03-02T02:51:12;4.00;95.35
66213;SHT31;53015;50.046;8.238;2024-03-02T02:53:37;4.19;95.09
66213;SHT31;53015;50.046;8.238;2024-03-02T02:56:05;3.95;95.16
66213;SHT31;53015;50.046;8.238;2024-03-02T02:58:30;3.94;95.75
66213;SHT31;53015;50.046;8.238;2024-03-02T03:00:56;3.87;95.87
66213;SHT31;53015;50.046;8.238;2024-03-02T03:03:22;3.81;96.01
66213;SHT31;53015;50.046;8.238;2024-03-02T03:05:48;3.87;96.29
66213;SHT31;53015;50.046;8.238;2024-03-02T03:08:14;3.90;96.12
66213;SHT31;53015;50.046;8.238;2024-03-02T03:10:39;3.84;96.31
66213;SHT31;53015;50.046;8.238;2024-03-02T03:13:06;3.83;96.55
66213;SHT31;53015;50.046;8.238;2024-03-02T03:15:32;3.89;96.71
66213;SHT31;53015;50.046;8.238;2024-03-02T03:17:57;3.93;96.65
66213;SHT31;53015;50.046;8.238;2024-03-02T03:20:23;3.93;96.74
66213;SHT31;53015;50.046;8.238;2024-03-02T03:22:49;3.93;96.78
66213;SHT31;53015;50.046;8.238;2024-03-02T03:25:15;3.90;96.71
66213;SHT31;53015;50.046;8.238;2024-03-02T03:27:41;3.86;96.74
66213;SHT31;53015;50.046;8.238;2024-03-02T03:30:09;3.81;96.83
66213;SHT31;53015;50.046;8.238;2024-03-02T03:32:36;3.81;96.81
66213;SHT31;53015;50.046;8.238;2024-03-02T03:35:01;3.86;96.74
66213;SHT31;53015;50.046;8.238;2024-03-02T03:37:27;3.81;96.91
66213;SHT31;53015;50.046;8.238;2024-03-02T03:39:52;3.91;97.01
66213;SHT31;53015;50.046;8.238;2024-03-02T03:42:18;3.81;96.26
66213;SHT31;53015;50.046;8.238;2024-03-02T03:44:46;3.69;96.40
66213;SHT31;53015;50.046;8.238;2024-03-02T03:47:13;3.62;97.09
66213;SHT31;53015;50.046;8.238;2024-03-02T03:49:38;3.62;97.13
66213;SHT31;53015;50.046;8.238;2024-03-02T03:52:04;3.91;96.58
66213;SHT31;53015;50.046;8.238;2024-03-02T03:54:30;3.83;96.20
66213;SHT31;53015;50.046;8.238;2024-03-02T03:56:56;3.73;96.51
66213;SHT31;53015;50.046;8.238;2024-03-02T03:59:21;3.64;96.69
66213;SHT31;53015;50.046;8.238;2024-03-02T04:01:47;3.59;96.63
66213;SHT31;53015;50.046;8.238;2024-03-02T04:04:15;3.60;96.79
66213;SHT31;53015;50.046;8.238;2024-03-02T04:06:40;3.56;96.92
66213;SHT31;53015;50.046;8.238;2024-03-02T04:09:06;3.53;97.32
66213;SHT31;53015;50.046;8.238;2024-03-02T04:11:32;3.60;97.24
66213;SHT31;53015;50.046;8.238;2024-03-02T04:13:58;3.53;97.56
66213;SHT31;53015;50.046;8.238;2024-03-02T04:16:23;3.49;97.45
66213;SHT31;53015;50.046;8.238;2024-03-02T04:18:49;3.51;97.61
66213;SHT31;53015;50.046;8.238;2024-03-02T04:21:16;3.69;96.45
66213;SHT31;53015;50.046;8.238;2024-03-02T04:23:41;3.60;96.43
66213;SHT31;53015;50.046;8.238;2024-03-02T04:26:06;3.59;96.78
66213;SHT31;53015;50.046;8.238;2024-03-02T04:28:32;3.49;96.82
66213;SHT31;53015;50.046;8.238;2024-03-02T04:30:58;3.42;97.00
66213;SHT31;53015;50.046;8.238;2024-03-02T04:33:23;3.35;97.01
66213;SHT31;53015;50.046;8.238;2024-03-02T04:35:49;3.26;97.21
66213;SHT31;53015;50.046;8.238;2024-03-02T04:38:16;3.24;97.57
66213;SHT31;53015;50.046;8.238;2024-03-02T04:40:41;3.18;97.37
66213;SHT31;53015;50.046;8.238;2024-03-02T04:43:07;3.22;97.44
66213;SHT31;53015;50.046;8.238;2024-03-02T04:45:32;3.18;97.41
66213;SHT31;53015;50.046;8.238;2024-03-02T04:47:58;3.14;97.33
66213;SHT31;53015;50.046;8.238;2024-03-02T04:50:24;3.18;97.37
66213;SHT31;53015;50.046;8.238;2024-03-02T04:52:50;3.17;97.40
66213;SHT31;53015;50.046;8.238;2024-03-02T04:55:17;3.09;97.35
66213;SHT31;53015;50.046;8.238;2024-03-02T04:57:43;3.17;97.79
66213;SHT31;53015;50.046;8.238;2024-03-02T05:00:09;3.29;97.81
66213;SHT31;53015;50.046;8.238;2024-03-02T05:02:35;3.34;97.69
66213;SHT31;53015;50.046;8.238;2024-03-02T05:05:00;3.38;97.78
66213;SHT31;53015;50.046;8.238;2024-03-02T05:07:26;3.51;97.81
66213;SHT31;53015;50.046;8.238;2024-03-02T05:09:51;3.53;97.28
66213;SHT31;53015;50.046;8.238;2024-03-02T05:12:19;3.63;97.25
66213;SHT31;53015;50.046;8.238;2024-03-02T05:14:45;3.67;97.03
66213;SHT31;53015;50.046;8.238;2024-03-02T05:17:11;3.69;95.96
66213;SHT31;53015;50.046;8.238;2024-03-02T05:19:37;3.76;96.58
66213;SHT31;53015;50.046;8.238;2024-03-02T05:22:02;3.89;96.14
66213;SHT31;53015;50.046;8.238;2024-03-02T05:24:28;3.91;96.05
66213;SHT31;53015;50.046;8.238;2024-03-02T05:26:53;3.90;95.82
66213;SHT31;53015;50.046;8.238;2024-03-02T05:29:20;4.01;95.52
66213;SHT31;53015;50.046;8.238;2024-03-02T05:31:46;4.02;95.68
66213;SHT31;53015;50.046;8.238;2024-03-02T05:34:12;4.04;95.50
66213;SHT31;53015;50.046;8.238;2024-03-02T05:36:37;4.04;95.41
66213;SHT31;53015;50.046;8.238;2024-03-02T05:39:03;4.14;95.75
66213;SHT31;53015;50.046;8.238;2024-03-02T05:41:29;4.24;95.50
66213;SHT31;53015;50.046;8.238;2024-03-02T05:43:54;4.28;95.01
66213;SHT31;53015;50.046;8.238;2024-03-02T05:46:21;4.35;94.74
66213;SHT31;53015;50.046;8.238;2024-03-02T05:48:46;4.35;94.61
66213;SHT31;53015;50.046;8.238;2024-03-02T05:51:12;4.36;94.87
66213;SHT31;53015;50.046;8.238;2024-03-02T05:53:37;4.35;95.16
66213;SHT31;53015;50.046;8.238;2024-03-02T05:56:04;4.35;95.32
66213;SHT31;53015;50.046;8.238;2024-03-02T05:58:30;4.41;95.24
66213;SHT31;53015;50.046;8.238;2024-03-02T06:00:55;4.45;95.40
66213;SHT31;53015;50.046;8.238;2024-03-02T06:03:22;4.67;95.28
66213;SHT31;53015;50.046;8.238;2024-03-02T06:05:48;4.97;94.30
66213;SHT31;53015;50.046;8.238;2024-03-02T06:08:13;5.00;94.04
66213;SHT31;53015;50.046;8.238;2024-03-02T06:10:39;5.07;93.94
66213;SHT31;53015;50.046;8.238;2024-03-02T06:13:04;5.17;93.19
66213;SHT31;53015;50.046;8.238;2024-03-02T06:15:30;5.25;93.38
66213;SHT31;53015;50.046;8.238;2024-03-02T06:17:55;5.39;92.94
66213;SHT31;53015;50.046;8.238;2024-03-02T06:20:22;5.28;92.96
66213;SHT31;53015;50.046;8.238;2024-03-02T06:22:47;5.32;93.14
66213;SHT31;53015;50.046;8.238;2024-03-02T06:25:13;5.30;92.94
66213;SHT31;53015;50.046;8.238;2024-03-02T06:27:39;5.34;93.58
66213;SHT31;53015;50.046;8.238;2024-03-02T06:30:05;5.34;93.21
66213;SHT31;53015;50.046;8.238;2024-03-02T06:32:31;5.56;92.86
66213;SHT31;53015;50.046;8.238;2024-03-02T06:34:57;5.59;92.90
66213;SHT31;53015;50.046;8.238;2024-03-02T06:37:24;5.45;92.37
66213;SHT31;53015;50.046;8.238;2024-03-02T06:39:50;5.45;92.09
66213;SHT31;53015;50.046;8.238;2024-03-02T06:42:15;5.43;92.50
66213;SHT31;53015;50.046;8.238;2024-03-02T06:44:41;5.38;93.26
66213;SHT31;53015;50.046;8.238;2024-03-02T06:47:06;5.36;93.79
66213;SHT31;53015;50.046;8.238;2024-03-02T06:49:31;5.49;93.44
66213;SHT31;53015;50.046;8.238;2024-03-02T06:51:57;5.71;92.69
66213;SHT31;53015;50.046;8.238;2024-03-02T06:54:24;5.81;91.72
66213;SHT31;53015;50.046;8.238;2024-03-02T06:56:50;5.85;91.99
66213;SHT31;53015;50.046;8.238;2024-03-02T06:59:15;5.85;92.10
66213;SHT31;53015;50.046;8.238;2024-03-02T07:01:41;5.87;92.39
66213;SHT31;53015;50.046;8.238;2024-03-02T07:04:07;6.00;92.15
66213;SHT31;53015;50.046;8.238;2024-03-02T07:06:33;6.07;91.66
66213;SHT31;53015;50.046;8.238;2024-03-02T07:08:58;6.05;91.88
66213;SHT31;53015;50.046;8.238;2024-03-02T07:11:25;5.91;91.92
66213;SHT31;53015;50.046;8.238;2024-03-02T07:13:50;5.93;92.06
66213;SHT31;53015;50.046;8.238;2024-03-02T07:16:16;5.98;91.79
66213;SHT31;53015;50.046;8.238;2024-03-02T07:18:42;6.22;91.60
66213;SHT31;53015;50.046;8.238;2024-03-02T07:21:08;6.45;91.02
66213;SHT31;53015;50.046;8.238;2024-03-02T07:23:34;6.50;91.06
66213;SHT31;53015;50.046;8.238;2024-03-02T07:26:01;6.57;90.98
66213;SHT31;53015;50.046;8.238;2024-03-02T07:28:28;6.54;90.54
66213;SHT31;53015;50.046;8.238;2024-03-02T07:30:58;6.60;90.50
66213;SHT31;53015;50.046;8.238;2024-03-02T07:33:24;6.65;91.19
66213;SHT31;53015;50.046;8.238;2024-03-02T07:35:49;6.79;90.76
66213;SHT31;53015;50.046;8.238;2024-03-02T07:38:15;6.94;90.02
66213;SHT31;53015;50.046;8.238;2024-03-02T07:40:41;6.86;90.03
66213;SHT31;53015;50.046;8.238;2024-03-02T07:43:06;7.01;89.95
66213;SHT31;53015;50.046;8.238;2024-03-02T07:45:33;7.01;89.97
66213;SHT31;53015;50.046;8.238;2024-03-02T07:47:59;7.19;89.45
66213;SHT31;53015;50.046;8.238;2024-03-02T07:50:25;6.98;90.26
66213;SHT31;53015;50.046;8.238;2024-03-02T07:52:50;6.96;90.43
66213;SHT31;53015;50.046;8.238;2024-03-02T07:55:16;6.96;90.47
66213;SHT31;53015;50.046;8.238;2024-03-02T07:57:41;7.21;90.19
66213;SHT31;53015;50.046;8.238;2024-03-02T08:00:08;7.36;89.39
66213;SHT31;53015;50.046;8.238;2024-03-02T08:02:36;7.34;88.66
66213;SHT31;53015;50.046;8.238;2024-03-02T08:05:02;7.34;88.24
66213;SHT31;53015;50.046;8.238;2024-03-02T08:07:28;7.31;88.30
66213;SHT31;53015;50.046;8.238;2024-03-02T08:09:53;7.35;88.46
66213;SHT31;53015;50.046;8.238;2024-03-02T08:12:19;7.38;88.27
66213;SHT31;53015;50.046;8.238;2024-03-02T08:14:44;7.38;88.57
66213;SHT31;53015;50.046;8.238;2024-03-02T08:17:10;7.65;88.26
66213;SHT31;53015;50.046;8.238;2024-03-02T08:19:37;7.82;87.74
66213;SHT31;53015;50.046;8.238;2024-03-02T08:22:03;7.83;87.30
66213;SHT31;53015;50.046;8.238;2024-03-02T08:24:29;7.95;86.75
66213;SHT31;53015;50.046;8.238;2024-03-02T08:26:55;7.98;86.34
66213;SHT31;53015;50.046;8.238;2024-03-02T08:29:20;8.14;86.38
66213;SHT31;53015;50.046;8.238;2024-03-02T08:31:46;8.08;86.93
66213;SHT31;53015;50.046;8.238;2024-03-02T08:34:12;7.89;86.95
66213;SHT31;53015;50.046;8.238;2024-03-02T08:36:38;7.90;86.74
66213;SHT31;53015;50.046;8.238;2024-03-02T08:39:04;7.89;86.64
66213;SHT31;53015;50.046;8.238;2024-03-02T08:41:29;7.84;87.27
66213;SHT31;53015;50.046;8.238;2024-03-02T08:43:55;8.04;87.01
66213;SHT31;53015;50.046;8.238;2024-03-02T08:46:21;7.97;86.50
66213;SHT31;53015;50.046;8.238;2024-03-02T08:48:47;8.14;86.15
66213;SHT31;53015;50.046;8.238;2024-03-02T08:51:12;8.10;86.21
66213;SHT31;53015;50.046;8.238;2024-03-02T08:53:40;8.32;85.42
66213;SHT31;53015;50.046;8.238;2024-03-02T08:56:06;8.46;86.19
66213;SHT31;53015;50.046;8.238;2024-03-02T08:58:31;8.49;84.93
66213;SHT31;53015;50.046;8.238;2024-03-02T09:00:57;8.42;84.76
66213;SHT31;53015;50.046;8.238;2024-03-02T09:03:22;8.70;84.90
66213;SHT31;53015;50.046;8.238;2024-03-02T09:05:48;8.81;83.86
66213;SHT31;53015;50.046;8.238;2024-03-02T09:08:14;8.58;83.91
66213;SHT31;53015;50.046;8.238;2024-03-02T09:10:41;8.63;83.65
66213;SHT31;53015;50.046;8.238;2024-03-02T09:13:07;8.79;83.23
66213;SHT31;53015;50.046;8.238;2024-03-02T09:15:32;9.04;83.51
66213;SHT31;53015;50.046;8.238;2024-03-02T09:17:58;9.31;82.40
66213;SHT31;53015;50.046;8.238;2024-03-02T09:20:23;9.34;82.29
66213;SHT31;53015;50.046;8.238;2024-03-02T09:22:49;9.35;82.96
66213;SHT31;53015;50.046;8.238;2024-03-02T09:25:15;9.39;83.29
66213;SHT31;53015;50.046;8.238;2024-03-02T09:27:42;9.46;82.56
66213;SHT31;53015;50.046;8.238;2024-03-02T09:30:08;9.58;81.88
66213;SHT31;53015;50.046;8.238;2024-03-02T09:32:34;9.65;81.62
66213;SHT31;53015;50.046;8.238;2024-03-02T09:35:00;9.78;81.97
66213;SHT31;53015;50.046;8.238;2024-03-02T09:37:25;9.69;81.63
66213;SHT31;53015;50.046;8.238;2024-03-02T09:39:51;9.73;81.96
66213;SHT31;53015;50.046;8.238;2024-03-02T09:42:17;9.52;81.88
66213;SHT31;53015;50.046;8.238;2024-03-02T09:44:44;9.70;82.18
66213;SHT31;53015;50.046;8.238;2024-03-02T09:47:10;9.75;82.99
66213;SHT31;53015;50.046;8.238;2024-03-02T09:49:36;10.01;82.18
66213;SHT31;53015;50.046;8.238;2024-03-02T09:52:03;10.07;80.35
66213;SHT31;53015;50.046;8.238;2024-03-02T09:54:29;10.06;80.59
66213;SHT31;53015;50.046;8.238;2024-03-02T09:56:55;10.22;79.78
66213;SHT31;53015;50.046;8.238;2024-03-02T09:59:21;10.41;79.41
66213;SHT31;53015;50.046;8.238;2024-03-02T10:01:58;10.62;79.15
66213;SHT31;53015;50.046;8.238;2024-03-02T10:04:25;10.08;80.33
66213;SHT31;53015;50.046;8.238;2024-03-02T10:06:51;10.37;79.48
66213;SHT31;53015;50.046;8.238;2024-03-02T10:09:26;10.35;79.04
66213;SHT31;53015;50.046;8.238;2024-03-02T10:11:52;10.35;79.14
66213;SHT31;53015;50.046;8.238;2024-03-02T10:14:18;10.54;79.11
66213;SHT31;53015;50.046;8.238;2024-03-02T10:16:44;10.38;78.14
66213;SHT31;53015;50.046;8.238;2024-03-02T10:19:21;10.55;78.36
66213;SHT31;53015;50.046;8.238;2024-03-02T10:21:47;10.46;79.27
66213;SHT31;53015;50.046;8.238;2024-03-02T10:24:12;10.71;79.22
66213;SHT31;53015;50.046;8.238;2024-03-02T10:26:38;10.77;78.12
66213;SHT31;53015;50.046;8.238;2024-03-02T10:29:04;10.38;78.19
66213;SHT31;53015;50.046;8.238;2024-03-02T10:31:30;10.51;78.56
66213;SHT31;53015;50.046;8.238;2024-03-02T10:33:56;10.86;78.63
66213;SHT31;53015;50.046;8.238;2024-03-02T10:36:24;10.73;78.13
66213;SHT31;53015;50.046;8.238;2024-03-02T10:38:50;10.68;77.93
66213;SHT31;53015;50.046;8.238;2024-03-02T10:41:16;10.44;78.88
66213;SHT31;53015;50.046;8.238;2024-03-02T10:43:43;10.63;79.04
66213;SHT31;53015;50.046;8.238;2024-03-02T10:46:09;11.06;78.52
66213;SHT31;53015;50.046;8.238;2024-03-02T10:48:36;11.18;77.49
66213;SHT31;53015;50.046;8.238;2024-03-02T10:51:04;11.48;76.41
66213;SHT31;53015;50.046;8.238;2024-03-02T10:53:31;11.64;75.95
66213;SHT31;53015;50.046;8.238;2024-03-02T10:55:58;11.58;75.24
66213;SHT31;53015;50.046;8.238;2024-03-02T10:58:26;11.71;75.58
66213;SHT31;53015;50.046;8.238;2024-03-02T11:00:56;11.68;75.06
66213;SHT31;53015;50.046;8.238;2024-03-02T11:03:22;11.58;75.73
66213;SHT31;53015;50.046;8.238;2024-03-02T11:05:49;11.76;75.02
66213;SHT31;53015;50.046;8.238;2024-03-02T11:08:18;11.68;75.65
66213;SHT31;53015;50.046;8.238;2024-03-02T11:10:50;11.61;76.49
66213;SHT31;53015;50.046;8.238;2024-03-02T11:13:16;12.07;74.37
66213;SHT31;53015;50.046;8.238;2024-03-02T11:15:43;11.65;75.05
66213;SHT31;53015;50.046;8.238;2024-03-02T11:18:10;11.72;74.92
66213;SHT31;53015;50.046;8.238;2024-03-02T11:20:38;12.23;74.65
66213;SHT31;53015;50.046;8.238;2024-03-02T11:23:08;12.31;73.07
66213;SHT31;53015;50.046;8.238;2024-03-02T11:25:34;12.33;73.21
66213;SHT31;53015;50.046;8.238;2024-03-02T11:28:03;12.26;72.89
66213;SHT31;53015;50.046;8.238;2024-03-02T11:30:56;12.31;72.90
66213;SHT31;53015;50.046;8.238;2024-03-02T11:33:27;12.16;72.95
66213;SHT31;53015;50.046;8.238;2024-03-02T11:35:52;11.94;73.63
66213;SHT31;53015;50.046;8.238;2024-03-02T11:38:18;11.99;73.53
66213;SHT31;53015;50.046;8.238;2024-03-02T11:40:44;11.93;73.77
66213;SHT31;53015;50.046;8.238;2024-03-02T11:43:11;12.03;73.98
66213;SHT31;53015;50.046;8.238;2024-03-02T11:45:37;11.97;73.61
66213;SHT31;53015;50.046;8.238;2024-03-02T11:48:06;12.30;73.37
66213;SHT31;53015;50.046;8.238;2024-03-02T11:50:34;12.19;72.63
66213;SHT31;53015;50.046;8.238;2024-03-02T11:53:00;12.00;73.55
66213;SHT31;53015;50.046;8.238;2024-03-02T11:55:26;12.03;73.11
66213;SHT31;53015;50.046;8.238;2024-03-02T11:57:52;11.94;72.00
66213;SHT31;53015;50.046;8.238;2024-03-02T12:00:20;12.03;72.89
66213;SHT31;53015;50.046;8.238;2024-03-02T12:02:46;11.93;73.50
66213;SHT31;53015;50.046;8.238;2024-03-02T12:05:13;11.99;74.19
66213;SHT31;53015;50.046;8.238;2024-03-02T12:07:39;11.94;73.85
66213;SHT31;53015;50.046;8.238;2024-03-02T12:10:05;11.86;73.08
66213;SHT31;53015;50.046;8.238;2024-03-02T12:12:31;11.82;73.03
66213;SHT31;53015;50.046;8.238;2024-03-02T12:14:57;11.90;73.77
66213;SHT31;53015;50.046;8.238;2024-03-02T12:17:24;11.78;73.47
66213;SHT31;53015;50.046;8.238;2024-03-02T12:19:50;11.79;72.49
66213;SHT31;53015;50.046;8.238;2024-03-02T12:22:15;11.58;72.81
66213;SHT31;53015;50.046;8.238;2024-03-02T12:24:42;11.64;72.30
66213;SHT31;53015;50.046;8.238;2024-03-02T12:27:08;11.71;72.55
66213;SHT31;53015;50.046;8.238;2024-03-02T12:29:34;11.68;72.05
66213;SHT31;53015;50.046;8.238;2024-03-02T12:31:59;11.79;72.65
66213;SHT31;53015;50.046;8.238;2024-03-02T12:34:26;11.76;71.75
66213;SHT31;53015;50.046;8.238;2024-03-02T12:36:52;11.86;72.11
66213;SHT31;53015;50.046;8.238;2024-03-02T12:39:18;11.94;72.16
66213;SHT31;53015;50.046;8.238;2024-03-02T12:41:45;12.06;72.52
66213;SHT31;53015;50.046;8.238;2024-03-02T12:44:11;12.16;71.66
66213;SHT31;53015;50.046;8.238;2024-03-02T12:46:37;12.24;70.84
66213;SHT31;53015;50.046;8.238;2024-03-02T12:49:08;12.30;70.51
66213;SHT31;53015;50.046;8.238;2024-03-02T12:51:35;12.40;70.18
66213;SHT31;53015;50.046;8.238;2024-03-02T12:54:01;12.52;70.32
66213;SHT31;53015;50.046;8.238;2024-03-02T12:56:27;12.71;70.91
66213;SHT31;53015;50.046;8.238;2024-03-02T12:58:53;12.61;69.94
66213;SHT31;53015;50.046;8.238;2024-03-02T13:01:19;12.57;70.38
66213;SHT31;53015;50.046;8.238;2024-03-02T13:03:44;12.51;69.37
66213;SHT31;53015;50.046;8.238;2024-03-02T13:06:10;12.59;70.38
66213;SHT31;53015;50.046;8.238;2024-03-02T13:08:38;12.48;69.62
66213;SHT31;53015;50.046;8.238;2024-03-02T13:11:04;12.48;69.69
66213;SHT31;53015;50.046;8.238;2024-03-02T13:13:30;12.62;69.22
66213;SHT31;53015;50.046;8.238;2024-03-02T13:15:56;12.69;69.39
66213;SHT31;53015;50.046;8.238;2024-03-02T13:18:21;12.65;67.54
66213;SHT31;53015;50.046;8.238;2024-03-02T13:20:47;12.79;68.11
66213;SHT31;53015;50.046;8.238;2024-03-02T13:23:12;12.95;68.74
66213;SHT31;53015;50.046;8.238;2024-03-02T13:25:40;12.96;68.08
66213;SHT31;53015;50.046;8.238;2024-03-02T13:28:06;13.00;67.82
66213;SHT31;53015;50.046;8.238;2024-03-02T13:30:32;13.10;67.41
66213;SHT31;53015;50.046;8.238;2024-03-02T13:32:58;13.10;67.44
66213;SHT31;53015;50.046;8.238;2024-03-02T13:35:23;13.17;66.98
66213;SHT31;53015;50.046;8.238;2024-03-02T13:37:49;13.22;67.41
66213;SHT31;53015;50.046;8.238;2024-03-02T13:40:14;13.24;67.10
66213;SHT31;53015;50.046;8.238;2024-03-02T13:42:41;13.37;67.18
66213;SHT31;53015;50.046;8.238;2024-03-02T13:45:07;13.51;66.67
66213;SHT31;53015;50.046;8.238;2024-03-02T13:47:33;13.51;64.93
66213;SHT31;53015;50.046;8.238;2024-03-02T13:49:59;13.48;65.15
66213;SHT31;53015;50.046;8.238;2024-03-02T13:52:25;13.62;65.69
66213;SHT31;53015;50.046;8.238;2024-03-02T13:54:51;13.71;64.74
66213;SHT31;53015;50.046;8.238;2024-03-02T13:57:17;13.92;64.57
66213;SHT31;53015;50.046;8.238;2024-03-02T13:59:45;14.09;64.28
66213;SHT31;53015;50.046;8.238;2024-03-02T14:02:11;14.34;64.39
66213;SHT31;53015;50.046;8.238;2024-03-02T14:04:37;14.26;64.56
66213;SHT31;53015;50.046;8.238;2024-03-02T14:07:03;14.53;64.35
66213;SHT31;53015;50.046;8.238;2024-03-02T14:09:29;14.67;64.07
66213;SHT31;53015;50.046;8.238;2024-03-02T14:11:55;14.65;63.15
66213;SHT31;53015;50.046;8.238;2024-03-02T14:14:21;14.67;63.48
66213;SHT31;53015;50.046;8.238;2024-03-02T14:16:49;14.57;63.40
66213;SHT31;53015;50.046;8.238;2024-03-02T14:19:15;14.43;63.24
66213;SHT31;53015;50.046;8.238;2024-03-02T14:21:40;14.36;63.87
66213;SHT31;53015;50.046;8.238;2024-03-02T14:24:06;14.10;63.63
66213;SHT31;53015;50.046;8.238;2024-03-02T14:26:32;13.95;63.86
66213;SHT31;53015;50.046;8.238;2024-03-02T14:28:57;13.96;63.98
66213;SHT31;53015;50.046;8.238;2024-03-02T14:31:23;13.90;64.45
66213;SHT31;53015;50.046;8.238;2024-03-02T14:33:51;14.05;64.39
66213;SHT31;53015;50.046;8.238;2024-03-02T14:36:17;14.05;63.93
66213;SHT31;53015;50.046;8.238;2024-03-02T14:38:42;13.99;64.18
66213;SHT31;53015;50.046;8.238;2024-03-02T14:41:08;13.92;63.74
66213;SHT31;53015;50.046;8.238;2024-03-02T14:43:34;13.98;64.75
66213;SHT31;53015;50.046;8.238;2024-03-02T14:46:00;14.06;63.74
66213;SHT31;53015;50.046;8.238;2024-03-02T14:48:26;14.12;64.17
66213;SHT31;53015;50.046;8.238;2024-03-02T14:50:53;14.13;63.14
66213;SHT31;53015;50.046;8.238;2024-03-02T14:53:18;14.13;63.94
66213;SHT31;53015;50.046;8.238;2024-03-02T14:55:44;14.22;63.71
66213;SHT31;53015;50.046;8.238;2024-03-02T14:58:09;14.17;64.10
66213;SHT31;53015;50.046;8.238;2024-03-02T15:00:35;14.20;64.52
66213;SHT31;53015;50.046;8.238;2024-03-02T15:03:00;14.13;63.27
66213;SHT31;53015;50.046;8.238;2024-03-02T15:05:26;14.08;63.88
66213;SHT31;53015;50.046;8.238;2024-03-02T15:07:53;14.08;64.71
66213;SHT31;53015;50.046;8.238;2024-03-02T15:10:19;14.10;64.52
66213;SHT31;53015;50.046;8.238;2024-03-02T15:12:44;14.20;65.42
66213;SHT31;53015;50.046;8.238;2024-03-02T15:15:10;14.15;63.19
66213;SHT31;53015;50.046;8.238;2024-03-02T15:17:35;14.16;63.47
66213;SHT31;53015;50.046;8.238;2024-03-02T15:20:01;14.22;63.36
66213;SHT31;53015;50.046;8.238;2024-03-02T15:22:27;14.17;63.57
66213;SHT31;53015;50.046;8.238;2024-03-02T15:24:54;14.22;63.58
66213;SHT31;53015;50.046;8.238;2024-03-02T15:27:19;14.20;63.75
66213;SHT31;53015;50.046;8.238;2024-03-02T15:29:45;14.22;63.89
66213;SHT31;53015;50.046;8.238;2024-03-02T15:32:10;14.27;64.36